createdAt,value
2018-01-01T00:07:53.593Z,0
2018-01-01T00:17:53.596Z,0
2018-01-01T00:27:53.626Z,4
2018-01-01T00:37:53.612Z,0
2018-01-01T00:47:53.634Z,0
2018-01-01T00:57:53.631Z,0
2018-01-01T01:07:53.652Z,0
2018-01-01T01:17:53.685Z,0
2018-01-01T01:27:53.654Z,0
2018-01-01T01:37:53.768Z,0
2018-01-01T01:47:53.709Z,0
2018-01-01T01:57:53.723Z,0
2018-01-01T02:07:53.684Z,0
2018-01-01T02:17:53.716Z,0
2018-01-01T02:27:53.707Z,0
2018-01-01T02:37:53.699Z,0
2018-01-01T02:47:53.829Z,0
2018-01-01T02:57:53.750Z,0
2018-01-01T03:07:53.745Z,0
2018-01-01T03:17:53.740Z,0
2018-01-01T03:27:53.751Z,0
2018-01-01T03:37:53.757Z,0
2018-01-01T03:47:53.803Z,0
2018-01-01T03:57:53.823Z,0
2018-01-01T04:07:53.826Z,0
2018-01-01T04:17:53.798Z,0
2018-01-01T04:27:53.815Z,0
2018-01-01T04:37:53.805Z,0
2018-01-01T04:47:53.803Z,0
2018-01-01T04:57:53.819Z,0
2018-01-01T05:07:53.838Z,0
2018-01-01T05:17:53.867Z,0
2018-01-01T05:27:53.899Z,0
2018-01-01T05:37:53.899Z,0
2018-01-01T05:47:53.856Z,0
2018-01-01T05:57:53.953Z,0
2018-01-01T06:07:53.892Z,0
2018-01-01T06:17:53.940Z,0
2018-01-01T06:27:53.891Z,0
2018-01-01T06:37:53.932Z,0
2018-01-01T06:47:53.975Z,0
2018-01-01T06:57:53.991Z,0
2018-01-01T07:07:53.946Z,0
2018-01-01T07:17:53.958Z,8
2018-01-01T07:27:54.011Z,16
2018-01-01T07:37:53.940Z,44
2018-01-01T07:47:54.041Z,212
2018-01-01T07:57:53.990Z,168
2018-01-01T08:07:54.062Z,1068
2018-01-01T08:17:54.027Z,1952
2018-01-01T08:27:54.057Z,2584
2018-01-01T08:37:54.074Z,2172
2018-01-01T08:47:54.077Z,2304
2018-01-01T08:57:54.020Z,2108
2018-01-01T09:07:54.014Z,1708
2018-01-01T09:17:54.057Z,1608
2018-01-01T09:27:54.203Z,1984
2018-01-01T09:37:54.057Z,2244
2018-01-01T09:47:54.102Z,2728
2018-01-01T09:57:54.062Z,2880
2018-01-01T10:07:54.092Z,5084
2018-01-01T10:17:55.142Z,3888
2018-01-01T10:27:54.126Z,3932
2018-01-01T10:37:54.095Z,5644
2018-01-01T10:47:54.143Z,6016
2018-01-01T10:57:54.197Z,3344
2018-01-01T11:07:54.194Z,3856
2018-01-01T11:17:54.156Z,3844
2018-01-01T11:27:54.196Z,2688
2018-01-01T11:37:54.258Z,5544
2018-01-01T11:47:54.205Z,4124
2018-01-01T11:57:54.191Z,4708
2018-01-01T12:07:54.235Z,3032
2018-01-01T12:17:54.341Z,3792
2018-01-01T12:27:54.267Z,3660
2018-01-01T12:37:54.214Z,2380
2018-01-01T12:47:54.210Z,3532
2018-01-01T12:57:54.487Z,3936
2018-01-01T13:07:54.240Z,3008
2018-01-01T13:17:54.602Z,1400
2018-01-01T13:27:54.769Z,1092
2018-01-01T13:37:54.281Z,524
2018-01-01T13:47:54.345Z,1264
2018-01-01T13:57:54.264Z,1116
